Time;durP1;ratioP1;P1;durP2;ratioP2;P2;SDS_P1;SDS_P2;PMS_P1;PMS_P2;Temp;Humidity;BMP_temperature;BMP_pressure;BME280_temperature;BME280_humidity;BME280_pressure;Samples;Min_cycle;Max_cycle;Signal;HPM_P1;HPM_P2
2021/01/21 00:01:01;;;;;;;9.63;6.70;;;;;;;22.78;31.47;95572.31;4952657;29;20046;-78
2021/01/21 00:03:27;;;;;;;9.30;6.60;;;;;;;22.78;31.59;95560.66;4954223;28;20055;-79
2021/01/21 00:05:52;;;;;;;10.98;6.72;;;;;;;22.78;31.52;95560.66;4952822;29;20038;-77
2021/01/21 00:08:18;;;;;;;9.52;6.60;;;;;;;22.74;31.27;95549.28;4953433;28;20404;-79
2021/01/21 00:10:43;;;;;;;9.98;7.07;;;;;;;22.65;31.50;95574.72;4953375;28;20020;-78
2021/01/21 00:13:09;;;;;;;9.45;6.38;;;;;;;22.67;31.42;95552.47;4954152;28;20086;-78
2021/01/21 00:15:34;;;;;;;9.60;6.45;;;;;;;22.53;31.27;95535.09;4953767;28;20027;-79
2021/01/21 00:18:00;;;;;;;9.98;6.75;;;;;;;22.66;31.71;95570.03;4936469;29;20023;-78
2021/01/21 00:20:26;;;;;;;9.77;6.65;;;;;;;22.70;31.42;95554.94;4953567;28;20038;-78
2021/01/21 00:22:51;;;;;;;9.10;6.40;;;;;;;22.68;31.72;95573.03;4952960;28;20424;-78
2021/01/21 00:25:17;;;;;;;9.35;6.90;;;;;;;22.63;31.19;95565.56;4953154;29;20050;-78
2021/01/21 00:27:42;;;;;;;8.93;7.00;;;;;;;22.59;31.50;95570.53;4953624;29;20420;-78
2021/01/21 00:30:09;;;;;;;10.07;7.43;;;;;;;22.47;31.46;95552.66;4954055;28;20039;-78
2021/01/21 00:32:34;;;;;;;9.02;6.75;;;;;;;22.57;31.50;95556.63;4953813;28;20034;-77
2021/01/21 00:35:00;;;;;;;8.85;6.00;;;;;;;22.58;31.59;95574.47;4953730;28;20102;-77
2021/01/21 00:37:25;;;;;;;10.43;6.97;;;;;;;22.63;31.63;95560.13;4953686;28;20489;-77
2021/01/21 00:39:51;;;;;;;9.63;6.55;;;;;;;22.63;31.72;95560.13;4953662;29;20038;-78
2021/01/21 00:42:16;;;;;;;9.43;6.47;;;;;;;22.61;31.54;95557.16;4953719;29;20024;-78
2021/01/21 00:44:41;;;;;;;8.38;5.95;;;;;;;22.60;31.58;95555.66;4953525;28;20015;-77
2021/01/21 00:47:07;;;;;;;8.75;6.40;;;;;;;22.56;31.45;95557.88;4953818;28;20042;-77
2021/01/21 00:49:32;;;;;;;8.93;6.18;;;;;;;22.54;31.76;95552.16;4953676;29;20027;-78
2021/01/21 00:51:58;;;;;;;10.10;6.55;;;;;;;22.50;31.33;95555.13;4952918;29;20027;-77
2021/01/21 00:54:23;;;;;;;9.70;6.55;;;;;;;22.49;31.62;95550.91;4953966;28;20035;-78
2021/01/21 00:56:49;;;;;;;9.27;6.35;;;;;;;22.54;31.59;95550.22;4953916;29;20055;-78
2021/01/21 00:59:14;;;;;;;9.40;6.50;;;;;;;22.57;31.40;95551.97;4953577;29;20036;-78
2021/01/21 01:01:40;;;;;;;8.68;6.20;;;;;;;22.52;31.59;95549.22;4953613;29;20023;-77
2021/01/21 01:04:05;;;;;;;8.77;6.22;;;;;;;22.39;31.61;95519.00;4953665;29;20051;-78
2021/01/21 01:06:31;;;;;;;10.70;6.78;;;;;;;22.51;31.60;95542.25;4952802;29;20405;-78
2021/01/21 01:08:56;;;;;;;9.20;5.97;;;;;;;22.47;31.62;95536.34;4954047;29;20022;-78
2021/01/21 01:11:22;;;;;;;9.05;6.53;;;;;;;22.46;31.60;95529.41;4953386;29;20454;-79
2021/01/21 01:13:47;;;;;;;8.63;6.15;;;;;;;22.45;31.54;95527.91;4953365;28;20028;-78
2021/01/21 01:16:13;;;;;;;9.68;6.82;;;;;;;22.44;31.71;95526.44;4953666;29;20034;-80
2021/01/21 01:18:38;;;;;;;8.90;6.40;;;;;;;22.47;31.68;95528.16;4953544;28;20027;-78
2021/01/21 01:21:04;;;;;;;9.63;6.50;;;;;;;22.46;31.66;95529.41;4954543;28;20027;-79
2021/01/21 01:23:30;;;;;;;9.43;6.47;;;;;;;22.45;31.68;95522.44;4957321;29;20035;-78
2021/01/21 01:25:56;;;;;;;9.43;6.80;;;;;;;22.42;31.72;95518.75;4957752;29;20027;-78
2021/01/21 01:28:22;;;;;;;11.10;6.63;;;;;;;22.43;31.59;95525.69;4957330;28;20110;-79
2021/01/21 01:30:47;;;;;;;8.68;6.35;;;;;;;22.42;31.72;95518.75;4956632;28;20031;-78
2021/01/21 01:33:13;;;;;;;10.02;6.43;;;;;;;22.43;31.65;95516.78;4956616;28;20027;-77
2021/01/21 01:35:38;;;;;;;10.07;6.45;;;;;;;22.40;31.78;95515.03;4957885;29;20027;-78
2021/01/21 01:38:04;;;;;;;9.48;5.95;;;;;;;22.42;31.81;95512.56;4956870;29;20078;-78
2021/01/21 01:40:29;;;;;;;8.80;6.57;;;;;;;22.41;31.89;95521.22;4974471;28;20035;-78
2021/01/21 01:42:55;;;;;;;9.18;6.88;;;;;;;22.41;31.78;95519.25;4957256;29;20037;-78
2021/01/21 01:45:21;;;;;;;9.25;6.35;;;;;;;22.17;31.54;95480.81;4956986;29;20208;-78
2021/01/21 01:47:46;;;;;;;9.95;6.38;;;;;;;22.34;31.61;95521.69;4955463;29;20024;-78
2021/01/21 01:50:12;;;;;;;9.70;6.70;;;;;;;22.40;31.68;95525.91;4955550;29;20030;-79
2021/01/21 01:52:44;;;;;;;10.10;6.72;;;;;;;22.41;31.73;95524.69;4955906;29;20035;-79
2021/01/21 01:55:12;;;;;;;10.88;7.20;;;;;;;22.43;31.49;95527.66;4956461;28;20034;-78
2021/01/21 01:57:38;;;;;;;9.43;6.43;;;;;;;22.42;31.74;95520.75;4956697;28;20063;-78
2021/01/21 02:00:04;;;;;;;9.07;6.03;;;;;;;22.38;31.76;95514.78;4956997;28;20029;-78
2021/01/21 02:02:30;;;;;;;9.20;6.43;;;;;;;22.36;31.71;95514.53;4956576;29;20066;-78
2021/01/21 02:04:55;;;;;;;9.95;6.82;;;;;;;22.30;31.72;95505.63;4955851;29;20511;-78
2021/01/21 02:07:21;;;;;;;10.43;7.25;;;;;;;22.33;31.75;95510.06;4957127;28;20082;-78
2021/01/21 02:09:46;;;;;;;10.45;6.82;;;;;;;22.35;31.78;95502.16;4957055;29;20492;-79
2021/01/21 02:12:34;;;;;;;8.90;6.53;;;;;;;22.36;31.61;95509.09;4954440;29;20031;-78
2021/01/21 02:15:38;;;;;;;9.52;6.20;;;;;;;22.39;31.63;95499.94;4956467;29;20034;-77
2021/01/21 02:18:13;;;;;;;9.68;6.30;;;;;;;22.39;31.73;95513.56;4955914;29;20035;-78
2021/01/21 02:21:16;;;;;;;9.70;6.43;;;;;;;22.35;31.50;95499.44;4956646;29;20042;-78
2021/01/21 02:24:05;;;;;;;9.95;6.72;;;;;;;22.33;31.67;95504.63;4956705;28;20424;-78
2021/01/21 02:26:38;;;;;;;9.75;6.65;;;;;;;22.31;31.66;95501.63;4955982;29;20039;-78
2021/01/21 02:29:13;;;;;;;11.90;6.68;;;;;;;22.29;31.86;95493.22;4956640;29;20030;-77
2021/01/21 02:31:49;;;;;;;9.23;6.13;;;;;;;22.34;31.73;95500.66;4955765;29;20508;-76
2021/01/21 02:34:17;;;;;;;10.00;6.35;;;;;;;22.24;31.62;95480.38;4956290;28;20126;-77
2021/01/21 02:36:44;;;;;;;10.40;6.45;;;;;;;22.35;31.62;95502.16;4957885;29;20030;-76
2021/01/21 02:39:10;;;;;;;10.32;6.22;;;;;;;22.30;31.55;95500.19;4957527;29;20035;-76
2021/01/21 02:41:36;;;;;;;9.50;6.75;;;;;;;22.27;31.71;95490.28;4959798;29;20039;-77
2021/01/21 02:44:02;;;;;;;9.48;6.40;;;;;;;22.28;31.74;95497.19;4955951;29;20757;-78
2021/01/21 02:46:27;;;;;;;8.77;6.45;;;;;;;22.27;31.76;95500.38;4955109;28;20503;-78
2021/01/21 02:48:53;;;;;;;9.82;6.18;;;;;;;22.31;31.68;95501.63;4954777;29;20027;-78
2021/01/21 02:51:54;;;;;;;8.80;6.25;;;;;;;22.08;31.54;95456.53;4970050;28;20035;-78
2021/01/21 02:54:45;;;;;;;10.00;6.40;;;;;;;22.34;31.68;95495.22;4932844;29;20448;-78
2021/01/21 02:57:25;;;;;;;9.05;6.32;;;;;;;22.31;31.82;95501.63;4954465;29;20513;-78
2021/01/21 02:59:52;;;;;;;8.77;6.40;;;;;;;22.30;31.65;95494.72;4954969;29;20035;-78
2021/01/21 03:02:18;;;;;;;10.07;6.35;;;;;;;22.14;31.92;95484.50;4953249;29;20035;-79
2021/01/21 03:04:43;;;;;;;9.57;6.50;;;;;;;22.25;31.90;95502.88;4953599;29;20030;-78
2021/01/21 03:07:10;;;;;;;9.25;6.20;;;;;;;22.27;31.65;95495.72;4953151;29;20031;-78
2021/01/21 03:09:35;;;;;;;11.25;7.10;;;;;;;22.17;31.80;95469.91;4953734;29;20045;-79
2021/01/21 03:12:21;;;;;;;9.43;6.75;;;;;;;22.31;31.78;95490.75;4953181;29;20019;-78
2021/01/21 03:14:47;;;;;;;9.90;6.85;;;;;;;22.30;31.68;95494.72;4954455;29;20066;-80
2021/01/21 03:17:12;;;;;;;9.98;7.18;;;;;;;22.29;31.69;95498.69;4954029;29;20027;-79
2021/01/21 03:19:38;;;;;;;9.15;6.38;;;;;;;22.27;31.71;95495.72;4954691;29;20031;-79
2021/01/21 03:22:03;;;;;;;8.98;6.63;;;;;;;22.09;31.67;95479.03;4954059;28;20031;-79
2021/01/21 03:24:29;;;;;;;8.68;5.90;;;;;;;22.28;31.57;95508.06;4955136;28;20034;-78
2021/01/21 03:26:54;;;;;;;9.25;6.50;;;;;;;22.30;31.81;95504.84;4954004;28;20497;-78
2021/01/21 03:29:20;;;;;;;9.75;6.32;;;;;;;22.28;31.74;95508.06;4954707;29;20034;-78
2021/01/21 03:31:45;;;;;;;11.80;6.93;;;;;;;22.28;31.73;95513.50;4954162;29;20477;-78
2021/01/21 03:34:11;;;;;;;9.38;6.60;;;;;;;22.25;31.71;95514.47;4953901;29;20561;-79
2021/01/21 03:36:36;;;;;;;9.45;6.70;;;;;;;22.24;31.74;95510.28;4952838;29;20057;-79
2021/01/21 03:39:02;;;;;;;8.82;6.30;;;;;;;22.22;31.58;95515.47;4954514;28;20027;-79
2021/01/21 03:41:27;;;;;;;9.85;6.90;;;;;;;22.23;31.67;95516.22;4954339;28;20093;-79
2021/01/21 03:43:53;;;;;;;8.75;6.13;;;;;;;22.12;31.54;95489.69;4953459;28;20086;-78
2021/01/21 03:46:18;;;;;;;9.90;6.57;;;;;;;22.25;31.72;95509.03;4951881;29;20034;-79
2021/01/21 03:48:44;;;;;;;9.05;5.88;;;;;;;22.23;31.60;95510.78;4953890;29;20027;-80
2021/01/21 03:51:09;;;;;;;10.77;6.63;;;;;;;22.18;31.68;95503.28;4953947;29;20035;-78
2021/01/21 03:53:34;;;;;;;10.27;6.63;;;;;;;22.20;31.67;95507.03;4953510;29;20086;-78
2021/01/21 03:56:00;;;;;;;10.68;6.80;;;;;;;22.21;31.61;95515.94;4953728;28;20085;-78
2021/01/21 03:58:25;;;;;;;9.93;7.15;;;;;;;22.23;31.70;95511.50;4954111;29;20048;-79
2021/01/21 04:00:51;;;;;;;10.45;6.72;;;;;;;22.25;31.46;95513.75;4952642;29;20513;-78
2021/01/21 04:03:16;;;;;;;9.75;6.40;;;;;;;22.27;31.51;95511.28;4953425;29;20046;-79
2021/01/21 04:05:42;;;;;;;9.77;6.93;;;;;;;22.24;31.47;95507.56;4953244;29;20416;-78
2021/01/21 04:08:07;;;;;;;9.68;6.50;;;;;;;22.22;31.69;95515.47;4953806;29;20023;-79
2021/01/21 04:10:33;;;;;;;10.05;6.50;;;;;;;22.19;31.79;95516.41;4953406;28;20023;-79
2021/01/21 04:12:58;;;;;;;8.65;6.45;;;;;;;22.17;31.67;95512.72;4953542;28;20038;-78
2021/01/21 04:15:23;;;;;;;9.43;5.97;;;;;;;22.16;31.73;95511.94;4953673;29;20019;-79
2021/01/21 04:17:49;;;;;;;8.98;6.60;;;;;;;22.21;31.08;95524.88;4953257;29;20039;-78
2021/01/21 04:20:15;;;;;;;8.68;6.18;;;;;;;22.25;31.57;95524.63;4953217;28;20027;-78
2021/01/21 04:22:40;;;;;;;8.90;6.28;;;;;;;22.27;31.55;95525.63;4954256;28;20027;-78
2021/01/21 04:25:06;;;;;;;9.98;6.75;;;;;;;22.25;31.58;95525.38;4953635;28;20038;-79
2021/01/21 04:27:32;;;;;;;9.85;6.95;;;;;;;22.21;31.64;95530.31;4953225;29;20019;-79
2021/01/21 04:29:57;;;;;;;10.90;6.88;;;;;;;22.18;31.50;95520.38;4953680;28;20039;-79
2021/01/21 04:32:23;;;;;;;9.65;6.78;;;;;;;22.13;31.70;95529.25;4953117;28;20049;-77
2021/01/21 04:34:48;;;;;;;9.50;6.82;;;;;;;22.19;31.65;95521.84;4953248;28;20524;-78
2021/01/21 04:37:13;;;;;;;8.55;6.65;;;;;;;22.22;31.78;95537.22;4953477;29;20086;-78
2021/01/21 04:39:40;;;;;;;9.15;6.53;;;;;;;22.21;31.55;95530.31;4953515;29;20027;-79
2021/01/21 04:42:06;;;;;;;9.85;6.55;;;;;;;22.21;31.64;95546.63;4953388;28;20050;-78
2021/01/21 04:44:31;;;;;;;10.73;6.80;;;;;;;22.19;31.54;95534.72;4952918;28;20031;-77
2021/01/21 04:46:57;;;;;;;9.95;6.45;;;;;;;22.17;31.80;95540.66;4952170;29;20023;-78
2021/01/21 04:49:22;;;;;;;8.88;6.30;;;;;;;22.13;31.59;95534.69;4951966;29;20389;-78
2021/01/21 04:51:48;;;;;;;8.80;6.25;;;;;;;22.07;31.66;95542.06;4951663;29;20046;-79
2021/01/21 04:54:14;;;;;;;10.15;6.97;;;;;;;21.99;31.73;95535.63;4951961;29;20027;-79
2021/01/21 04:56:40;;;;;;;10.18;7.07;;;;;;;21.94;31.69;95539.06;4955488;28;20457;-79
2021/01/21 04:59:09;;;;;;;8.98;6.35;;;;;;;21.92;31.91;95536.06;4955772;29;20031;-79
2021/01/21 05:01:34;;;;;;;10.23;6.93;;;;;;;21.82;31.91;95519.69;4957599;29;20109;-79
2021/01/21 05:04:00;;;;;;;9.32;6.20;;;;;;;21.95;31.68;95539.78;4955785;29;20559;-78
2021/01/21 05:06:26;;;;;;;8.85;6.60;;;;;;;21.99;31.85;95530.19;4955615;29;20066;-78
2021/01/21 05:08:51;;;;;;;9.20;6.25;;;;;;;22.01;31.86;95522.25;4955521;29;20397;-79
2021/01/21 05:11:17;;;;;;;11.13;6.65;;;;;;;22.08;31.63;95532.69;4955391;29;20440;-79
2021/01/21 05:13:42;;;;;;;9.15;6.50;;;;;;;22.07;31.72;95531.19;4956947;29;20035;-78
2021/01/21 05:16:08;;;;;;;10.05;7.53;;;;;;;22.09;31.77;95523.31;4955674;29;20035;-78
2021/01/21 05:18:35;;;;;;;9.30;7.05;;;;;;;22.10;31.72;95529.47;4956318;28;20477;-78
2021/01/21 05:21:03;;;;;;;10.15;7.00;;;;;;;21.96;31.59;95514.84;4948896;28;20031;-78
2021/01/21 05:23:29;;;;;;;9.13;6.60;;;;;;;22.00;31.58;95509.91;4956335;29;20019;-77
2021/01/21 05:25:54;;;;;;;10.40;7.40;;;;;;;22.15;31.57;95526.81;4956013;29;20030;-76
2021/01/21 05:28:19;;;;;;;9.13;6.55;;;;;;;22.19;31.63;95527.28;4954046;28;20452;-75
2021/01/21 05:30:48;;;;;;;10.43;6.75;;;;;;;22.19;31.78;95526.56;4954258;29;21332;-78
2021/01/21 05:33:15;;;;;;;10.40;6.57;;;;;;;22.23;31.65;95527.84;4948508;29;20023;-78
2021/01/21 05:35:40;;;;;;;9.40;6.80;;;;;;;22.24;31.72;95528.56;4966004;28;20496;-79
2021/01/21 05:38:06;;;;;;;9.20;6.43;;;;;;;22.26;31.70;95529.59;4956741;29;20038;-74
2021/01/21 05:40:31;;;;;;;11.77;7.57;;;;;;;22.29;31.65;95531.31;4954236;29;20039;-76
2021/01/21 05:42:57;;;;;;;10.25;6.53;;;;;;;22.33;31.47;95520.97;4955144;28;20020;-75
2021/01/21 05:45:23;;;;;;;10.40;6.90;;;;;;;22.36;31.36;95519.97;4955673;28;20026;-81
2021/01/21 05:47:59;;;;;;;10.88;7.50;;;;;;;22.42;30.95;95518.75;4954522;29;20031;-76
2021/01/21 05:50:25;;;;;;;11.10;7.65;;;;;;;22.48;31.26;95521.47;4957129;28;20019;-80
2021/01/21 05:52:51;;;;;;;11.52;8.25;;;;;;;22.52;31.15;95520.00;4956598;28;20034;-81
2021/01/21 05:55:21;;;;;;;10.82;7.55;;;;;;;22.53;31.17;95496.28;4952178;29;20042;-83
2021/01/21 05:57:47;;;;;;;11.02;7.38;;;;;;;22.71;31.07;95517.59;4967331;28;20043;-79
2021/01/21 06:00:15;;;;;;;9.60;7.18;;;;;;;22.79;30.90;95521.31;4948105;28;20035;-86
2021/01/21 06:02:40;;;;;;;10.68;7.13;;;;;;;22.87;30.82;95505.97;4956593;29;20563;-86
2021/01/21 06:05:07;;;;;;;10.10;7.22;;;;;;;22.97;30.96;95525.09;4940596;29;20034;-84
2021/01/21 06:07:32;;;;;;;11.88;7.10;;;;;;;23.07;30.85;95529.03;4939325;29;20035;-84
2021/01/21 06:09:58;;;;;;;11.68;7.05;;;;;;;23.10;30.54;95519.88;4956767;29;20037;-84
2021/01/21 06:12:26;;;;;;;12.02;7.72;;;;;;;23.15;30.32;95519.16;4960319;29;20043;-81
2021/01/21 06:14:52;;;;;;;12.23;8.18;;;;;;;23.23;30.26;95531.03;4970992;28;20027;-86
2021/01/21 06:17:17;;;;;;;11.40;7.68;;;;;;;23.33;30.53;95534.97;4939468;29;20031;-77
2021/01/21 06:19:43;;;;;;;11.38;7.25;;;;;;;23.30;30.39;95511.44;4955799;28;20050;-75
2021/01/21 06:22:18;;;;;;;10.63;6.80;;;;;;;23.52;29.88;95535.97;4956048;28;20379;-77
2021/01/21 06:24:44;;;;;;;11.00;7.30;;;;;;;23.53;30.38;95526.56;4954383;29;20035;-78
2021/01/21 06:27:10;;;;;;;10.50;7.10;;;;;;;23.64;30.49;95526.56;4953405;28;20035;-87
2021/01/21 06:29:35;;;;;;;10.85;6.75;;;;;;;23.67;30.28;95525.56;4957691;28;20425;-79
2021/01/21 06:32:02;;;;;;;9.98;7.28;;;;;;;23.73;29.75;95529.03;4954880;28;20027;-75
2021/01/21 06:34:32;;;;;;;11.80;7.50;;;;;;;23.81;29.43;95530.75;4954409;28;20418;-77
2021/01/21 06:37:13;;;;;;;10.82;7.22;;;;;;;23.74;29.97;95511.44;4952543;29;20078;-74
2021/01/21 06:39:42;;;;;;;11.27;7.97;;;;;;;23.80;29.65;95517.63;4953086;29;20039;-80
2021/01/21 06:42:08;;;;;;;11.20;7.15;;;;;;;23.96;29.66;95537.41;4952916;29;20077;-81
2021/01/21 06:44:33;;;;;;;10.18;7.03;;;;;;;24.01;29.46;95539.38;4954459;28;20119;-78
2021/01/21 06:46:59;;;;;;;10.52;7.60;;;;;;;23.88;29.60;95509.16;4954693;28;20047;-77
2021/01/21 06:49:25;;;;;;;11.32;7.47;;;;;;;24.03;29.13;95536.88;4952853;29;20019;-79
2021/01/21 06:51:50;;;;;;;11.60;7.80;;;;;;;23.99;29.70;95520.03;4934884;29;20023;-77
2021/01/21 06:54:16;;;;;;;12.15;8.18;;;;;;;24.05;29.29;95512.56;4951901;28;20555;-79
2021/01/21 06:56:41;;;;;;;10.88;7.50;;;;;;;24.13;29.18;95524.44;4971767;23;20577;-82
2021/01/21 06:59:07;;;;;;;12.10;9.00;;;;;;;24.11;28.98;95516.03;4954830;28;20034;-84
2021/01/21 07:01:32;;;;;;;13.05;8.27;;;;;;;24.18;28.76;95515.50;4972280;28;20030;-84
2021/01/21 07:04:04;;;;;;;11.60;8.05;;;;;;;24.22;28.77;95510.53;4958560;28;20043;-81
2021/01/21 07:06:58;;;;;;;10.65;7.35;;;;;;;24.25;29.17;95512.25;4959888;28;20138;-84
2021/01/21 07:09:27;;;;;;;11.82;8.40;;;;;;;24.33;28.75;95515.22;4956571;28;20031;-76
2021/01/21 07:11:54;;;;;;;9.18;7.03;;;;;;;24.31;28.65;95523.88;4955226;28;20038;-83
2021/01/21 07:14:20;;;;;;;11.48;7.47;;;;;;;24.23;28.49;95506.56;4954227;29;20054;-81
2021/01/21 07:16:55;;;;;;;10.52;7.85;;;;;;;24.39;28.71;95536.53;4950880;28;20046;-75
2021/01/21 07:19:40;;;;;;;11.38;7.95;;;;;;;24.46;28.69;95529.81;4942261;28;20105;-82
2021/01/21 07:22:21;;;;;;;14.10;9.18;;;;;;;24.46;28.51;95522.34;4957564;28;20027;-75
2021/01/21 07:24:54;;;;;;;12.25;8.52;;;;;;;24.44;28.50;95522.09;4954742;28;20504;-76
2021/01/21 07:27:20;;;;;;;11.75;7.82;;;;;;;24.56;29.22;95533.72;4953336;28;20050;-78
2021/01/21 07:29:46;;;;;;;11.75;8.20;;;;;;;24.58;29.22;95547.63;4952872;28;20500;-74
2021/01/21 07:32:11;;;;;;;11.05;7.80;;;;;;;24.58;28.73;95536.69;4963095;28;20090;-74
2021/01/21 07:34:39;;;;;;;9.90;7.63;;;;;;;24.59;28.96;95549.84;4956535;28;20027;-76
2021/01/21 07:37:39;;;;;;;11.25;7.55;;;;;;;24.60;29.24;95545.88;4956241;28;20550;-75
2021/01/21 07:40:05;;;;;;;12.45;7.90;;;;;;;24.66;29.49;95554.75;4954590;28;20043;-83
2021/01/21 07:42:36;;;;;;;11.40;8.23;;;;;;;24.67;29.13;95550.06;4957756;28;20126;-81
2021/01/21 07:45:03;;;;;;;11.63;7.50;;;;;;;24.57;29.34;95529.72;4959147;28;20047;-74
2021/01/21 07:47:35;;;;;;;11.77;8.05;;;;;;;24.68;29.23;95552.28;4968174;28;20369;-76
2021/01/21 07:50:16;;;;;;;10.98;8.07;;;;;;;24.71;28.83;95539.59;4961023;28;20089;-74
2021/01/21 07:52:46;;;;;;;11.98;8.15;;;;;;;24.71;29.35;95539.59;4968017;28;20283;-75
2021/01/21 07:55:11;;;;;;;11.37;8.20;;;;;;;24.73;29.26;95537.84;4965812;28;20035;-75
2021/01/21 07:57:37;;;;;;;11.95;8.00;;;;;;;24.77;28.83;95537.56;4954671;28;20290;-78
2021/01/21 08:00:11;;;;;;;13.00;8.98;;;;;;;24.75;29.17;95529.13;4954621;28;20518;-77
2021/01/21 08:02:55;;;;;;;12.55;8.55;;;;;;;24.71;28.71;95528.66;4950260;28;20034;-77
2021/01/21 08:05:23;;;;;;;11.68;8.50;;;;;;;24.82;29.13;95535.53;4953202;28;20015;-79
2021/01/21 08:07:53;;;;;;;12.40;8.60;;;;;;;24.91;28.86;95537.25;4954431;28;20062;-79
2021/01/21 08:10:28;;;;;;;12.63;8.82;;;;;;;25.00;28.50;95532.22;4953314;28;20110;-79
2021/01/21 08:12:56;;;;;;;11.73;8.68;;;;;;;25.06;28.48;95524.72;4949932;28;20428;-80
2021/01/21 08:15:23;;;;;;;11.95;8.85;;;;;;;25.09;28.43;95525.72;4957069;28;20058;-81
2021/01/21 08:17:51;;;;;;;12.88;8.35;;;;;;;25.09;28.12;95526.44;4954744;28;20039;-82
2021/01/21 08:20:18;;;;;;;13.15;9.02;;;;;;;25.10;28.16;95533.41;4984847;23;20051;-80
2021/01/21 08:22:59;;;;;;;13.63;9.35;;;;;;;25.10;28.35;95527.94;4930485;29;20069;-73
2021/01/21 08:25:26;;;;;;;13.25;9.68;;;;;;;25.11;28.26;95537.63;4934203;29;21105;-70
2021/01/21 08:27:52;;;;;;;13.07;9.07;;;;;;;25.10;28.48;95521.75;4928556;29;20114;-69
2021/01/21 08:30:18;;;;;;;15.00;10.18;;;;;;;25.08;28.33;95519.53;4931765;29;20163;-69
2021/01/21 08:32:44;;;;;;;13.32;9.38;;;;;;;25.07;27.97;95523.50;4932687;29;20028;-67
2021/01/21 08:35:12;;;;;;;12.15;9.45;;;;;;;25.11;27.93;95523.97;4917602;29;20428;-67
2021/01/21 08:37:39;;;;;;;14.50;10.75;;;;;;;25.07;28.18;95528.97;4924439;29;20051;-68
2021/01/21 08:40:05;;;;;;;13.50;9.73;;;;;;;25.08;27.69;95521.50;4913752;29;20123;-67
2021/01/21 08:42:31;;;;;;;14.10;9.45;;;;;;;24.85;27.92;95479.88;4930576;29;20531;-68
2021/01/21 08:44:56;;;;;;;13.93;9.98;;;;;;;24.99;27.78;95528.03;4914915;29;20081;-69
2021/01/21 08:47:24;;;;;;;13.18;9.40;;;;;;;24.81;28.09;95499.81;4916394;29;20040;-77
2021/01/21 08:49:52;;;;;;;13.88;9.98;;;;;;;24.98;27.73;95537.44;4935885;29;20043;-77
2021/01/21 08:52:17;;;;;;;14.80;9.52;;;;;;;24.93;27.92;95530.03;4928957;29;20054;-73
2021/01/21 08:54:55;;;;;;;13.68;9.70;;;;;;;24.79;28.29;95535.81;4934576;29;20032;-78
2021/01/21 08:57:23;;;;;;;14.77;10.48;;;;;;;24.78;28.73;95530.88;4935619;29;20034;-80
2021/01/21 08:59:48;;;;;;;13.10;9.88;;;;;;;24.67;28.29;95518.00;4935641;29;20681;-83
2021/01/21 09:02:14;;;;;;;14.32;10.20;;;;;;;24.63;28.32;95533.19;4931244;29;20035;-82
2021/01/21 09:04:41;;;;;;;13.00;9.35;;;;;;;24.58;29.04;95509.38;4932256;29;20036;-74
2021/01/21 09:07:08;;;;;;;14.30;9.25;;;;;;;24.53;28.64;95530.00;4931052;29;20042;-69
2021/01/21 09:09:35;;;;;;;12.65;9.93;;;;;;;24.49;29.24;95528.78;4932962;29;20166;-71
2021/01/21 09:12:19;;;;;;;13.38;9.45;;;;;;;24.28;28.77;95527.63;4935161;29;20054;-85
2021/01/21 09:15:00;;;;;;;13.32;9.57;;;;;;;24.06;29.19;95502.41;4935264;29;20035;-68
2021/01/21 09:17:26;;;;;;;13.15;9.20;;;;;;;24.19;29.71;95527.91;4929370;29;20023;-70
2021/01/21 09:19:51;;;;;;;13.45;9.98;;;;;;;24.18;29.86;95542.78;4930404;29;20074;-69
2021/01/21 09:22:22;;;;;;;12.65;9.77;;;;;;;24.15;29.92;95527.41;4931709;29;20035;-69
2021/01/21 09:25:06;;;;;;;15.23;10.07;;;;;;;24.18;29.49;95520.22;4932046;29;20102;-69
2021/01/21 09:27:36;;;;;;;12.98;9.05;;;;;;;24.17;29.32;95519.47;4931461;29;20034;-69
2021/01/21 09:30:04;;;;;;;15.02;10.70;;;;;;;24.10;29.33;95514.53;4931909;29;20166;-69
2021/01/21 09:32:39;;;;;;;15.00;10.05;;;;;;;24.00;29.55;95521.50;4931738;29;20031;-69
2021/01/21 09:35:06;;;;;;;14.27;9.90;;;;;;;23.90;30.08;95523.03;4932202;29;20024;-70
2021/01/21 09:37:38;;;;;;;15.35;10.02;;;;;;;23.84;29.79;95507.19;4931767;29;20573;-69
2021/01/21 09:40:08;;;;;;;14.45;10.38;;;;;;;23.77;29.54;95507.72;4931871;29;20039;-70
2021/01/21 09:42:45;;;;;;;14.75;10.27;;;;;;;23.73;29.78;95490.84;4932528;29;20031;-74
2021/01/21 09:45:11;;;;;;;14.27;10.18;;;;;;;23.70;30.06;95500.03;4948196;29;20063;-70
2021/01/21 09:47:37;;;;;;;14.57;10.30;;;;;;;23.50;29.99;95462.13;4935062;28;20052;-68
2021/01/21 09:50:03;;;;;;;14.48;10.52;;;;;;;23.65;29.69;95489.88;4932000;29;20444;-68
2021/01/21 09:52:29;;;;;;;14.77;10.38;;;;;;;23.63;29.76;95497.78;4949931;29;20020;-69
2021/01/21 09:54:54;;;;;;;14.70;10.30;;;;;;;23.63;29.76;95486.88;4935017;29;20038;-69
2021/01/21 09:57:20;;;;;;;15.77;10.52;;;;;;;23.57;29.84;95477.97;4934533;29;20083;-69
2021/01/21 09:59:46;;;;;;;14.63;10.40;;;;;;;23.57;29.68;95478.72;4934710;29;20040;-69
2021/01/21 10:02:11;;;;;;;14.77;10.35;;;;;;;23.51;29.90;95480.72;4933286;29;20070;-70
2021/01/21 10:04:39;;;;;;;15.20;10.93;;;;;;;23.50;30.14;95467.59;4933559;29;20026;-70
2021/01/21 10:07:04;;;;;;;12.77;10.18;;;;;;;23.46;29.70;95467.09;4933344;29;20118;-69
2021/01/21 10:09:30;;;;;;;14.25;10.38;;;;;;;23.42;29.82;95467.34;4933578;29;20500;-69
2021/01/21 10:11:55;;;;;;;14.90;10.52;;;;;;;23.46;29.53;95467.09;4919072;29;20039;-68
2021/01/21 10:14:21;;;;;;;17.73;11.52;;;;;;;23.38;29.84;95458.66;4934566;29;20040;-68
2021/01/21 10:16:46;;;;;;;14.95;10.80;;;;;;;23.43;30.20;95468.81;4939312;29;20043;-77
2021/01/21 10:19:12;;;;;;;15.38;10.77;;;;;;;23.41;29.66;95460.41;4935288;29;20135;-77
2021/01/21 10:21:37;;;;;;;16.60;10.60;;;;;;;23.31;30.00;95466.59;4943674;29;20035;-77
2021/01/21 10:24:04;;;;;;;15.65;10.95;;;;;;;23.28;30.98;95467.59;4944681;29;20054;-80
2021/01/21 10:26:29;;;;;;;14.43;10.25;;;;;;;23.27;30.86;95460.66;4936826;29;20481;-79
2021/01/21 10:28:54;;;;;;;13.85;10.20;;;;;;;23.30;31.37;95459.66;4936105;29;20030;-79
2021/01/21 10:31:20;;;;;;;14.52;10.50;;;;;;;23.34;31.49;95453.97;4936284;29;20032;-77
2021/01/21 10:33:45;;;;;;;16.50;10.43;;;;;;;23.24;31.97;95437.13;4936162;29;20028;-80
2021/01/21 10:36:11;;;;;;;13.20;10.48;;;;;;;23.33;31.29;95447.03;4941571;29;20031;-82
2021/01/21 10:38:38;;;;;;;14.73;10.18;;;;;;;23.29;31.74;95435.63;4942722;29;20031;-79
2021/01/21 10:41:04;;;;;;;14.85;10.02;;;;;;;23.31;31.27;95439.34;4936072;29;20043;-78
2021/01/21 10:43:29;;;;;;;16.45;11.15;;;;;;;23.12;31.40;95416.63;4936116;28;20023;-82
2021/01/21 10:45:55;;;;;;;14.68;10.15;;;;;;;23.27;32.03;95438.84;4936463;28;20059;-78
2021/01/21 10:48:20;;;;;;;14.25;10.32;;;;;;;23.22;32.16;95434.16;4904032;28;20553;-78
2021/01/21 10:50:45;;;;;;;16.02;10.15;;;;;;;23.18;32.73;95428.22;4951030;28;20035;-73
2021/01/21 10:53:11;;;;;;;15.30;10.40;;;;;;;23.17;33.05;95424.03;4932625;29;20020;-79
2021/01/21 10:55:36;;;;;;;15.35;10.27;;;;;;;23.19;33.74;95432.44;4935154;29;20416;-76
2021/01/21 10:58:06;;;;;;;15.77;10.35;;;;;;;23.19;34.13;95418.81;4935652;29;20023;-75
2021/01/21 11:00:31;;;;;;;15.23;10.13;;;;;;;23.15;33.96;95415.63;4935518;28;20015;-75
2021/01/21 11:02:57;;;;;;;15.05;10.13;;;;;;;23.19;33.52;95410.66;4935917;29;20487;-79
2021/01/21 11:05:22;;;;;;;14.45;10.10;;;;;;;23.26;34.61;95404.69;4939334;29;20051;-78
2021/01/21 11:07:48;;;;;;;15.05;9.93;;;;;;;23.21;33.68;95386.34;4937133;29;20028;-76
2021/01/21 11:10:13;;;;;;;15.63;10.25;;;;;;;23.28;34.39;95385.84;4937479;29;20015;-77
2021/01/21 11:12:39;;;;;;;13.65;10.02;;;;;;;23.33;34.06;95404.16;4937727;29;20024;-76
2021/01/21 11:15:05;;;;;;;16.27;10.40;;;;;;;23.40;34.39;95404.41;4939717;29;20020;-75
2021/01/21 11:17:30;;;;;;;14.68;10.25;;;;;;;23.44;34.19;95409.59;4938867;29;20034;-79
2021/01/21 11:19:56;;;;;;;15.07;10.13;;;;;;;23.40;34.24;95379.13;4940094;29;20044;-76
2021/01/21 11:22:23;;;;;;;13.38;10.65;;;;;;;23.50;35.32;95386.53;4938663;28;20119;-79
2021/01/21 11:24:49;;;;;;;14.50;9.15;;;;;;;23.48;34.83;95391.75;4940645;29;20394;-78
2021/01/21 11:27:14;;;;;;;17.15;10.90;;;;;;;23.37;34.89;95361.78;4938487;29;20039;-75
2021/01/21 11:29:40;;;;;;;16.67;9.88;;;;;;;23.51;34.81;95382.56;4938158;29;20086;-74